createdAt,value
2017-11-21T00:00:22.266Z,5.72
2017-11-21T00:01:02.824Z,5.69
2017-11-21T00:01:43.396Z,5.62
2017-11-21T00:02:23.983Z,5.57
2017-11-21T00:03:04.573Z,5.66
2017-11-21T00:03:45.143Z,5.62
2017-11-21T00:04:25.703Z,5.53
2017-11-21T00:05:06.287Z,5.53
2017-11-21T00:05:46.849Z,5.59
2017-11-21T00:06:27.418Z,5.64
2017-11-21T00:07:07.970Z,5.51
2017-11-21T00:07:48.546Z,5.48
2017-11-21T00:08:29.115Z,5.48
2017-11-21T00:09:09.722Z,5.5
2017-11-21T00:09:50.317Z,5.57
2017-11-21T00:10:30.927Z,5.51
2017-11-21T00:11:11.488Z,5.54
2017-11-21T00:11:52.059Z,5.47
2017-11-21T00:12:32.642Z,5.62
2017-11-21T00:13:13.255Z,5.54
2017-11-21T00:13:53.814Z,5.62
2017-11-21T00:14:34.383Z,5.65
2017-11-21T00:15:14.968Z,5.65
2017-11-21T00:15:55.553Z,5.65
2017-11-21T00:16:36.160Z,5.48
2017-11-21T00:17:16.805Z,5.5
2017-11-21T00:17:57.373Z,5.53
2017-11-21T00:18:37.949Z,5.53
2017-11-21T00:19:18.500Z,5.51
2017-11-21T00:19:59.083Z,5.47
2017-11-21T00:20:39.658Z,5.53
2017-11-21T00:21:20.228Z,5.47
2017-11-21T00:22:00.802Z,5.39
2017-11-21T00:22:41.352Z,5.41
2017-11-21T00:23:21.912Z,5.41
2017-11-21T00:24:02.505Z,5.41
2017-11-21T00:24:43.078Z,5.38
2017-11-21T00:25:23.660Z,5.43
2017-11-21T00:26:04.258Z,5.44
2017-11-21T00:26:44.831Z,5.36
2017-11-21T00:27:25.406Z,5.38
2017-11-21T00:28:05.980Z,5.36
2017-11-21T00:28:46.538Z,5.44
2017-11-21T00:29:27.112Z,5.47
2017-11-21T00:30:07.722Z,5.43
2017-11-21T00:30:48.308Z,5.41
2017-11-21T00:31:28.853Z,5.46
2017-11-21T00:32:09.412Z,5.54
2017-11-21T00:32:49.977Z,5.51
2017-11-21T00:33:30.559Z,5.53
2017-11-21T00:34:11.151Z,5.51
2017-11-21T00:34:51.722Z,5.5
2017-11-21T00:35:32.303Z,5.62
2017-11-21T00:36:12.871Z,5.5
2017-11-21T00:36:53.447Z,5.56
2017-11-21T00:37:34.025Z,5.48
2017-11-21T00:38:14.589Z,5.53
2017-11-21T00:38:55.155Z,5.51
2017-11-21T00:39:35.725Z,5.53
2017-11-21T00:40:16.288Z,5.62
2017-11-21T00:40:56.885Z,5.51
2017-11-21T00:41:37.473Z,5.5
2017-11-21T00:42:18.045Z,5.51
2017-11-21T00:42:58.615Z,5.64
2017-11-21T00:43:39.198Z,5.56
2017-11-21T00:44:19.761Z,5.64
2017-11-21T00:45:00.324Z,5.68
2017-11-21T00:45:40.909Z,5.59
2017-11-21T00:46:21.483Z,5.62
2017-11-21T00:47:02.050Z,5.65
2017-11-21T00:47:42.817Z,5.64
2017-11-21T00:48:23.362Z,5.64
2017-11-21T00:49:03.928Z,5.54
2017-11-21T00:49:44.520Z,5.65
2017-11-21T00:50:25.086Z,5.5
2017-11-21T00:51:05.731Z,5.62
2017-11-21T00:51:46.249Z,5.5
2017-11-21T00:52:26.825Z,5.56
2017-11-21T00:53:07.396Z,5.62
2017-11-21T00:53:47.954Z,5.62
2017-11-21T00:54:28.533Z,5.53
2017-11-21T00:55:09.142Z,5.68
2017-11-21T00:55:49.741Z,5.66
2017-11-21T00:56:30.348Z,5.64
2017-11-21T00:57:10.902Z,5.66
2017-11-21T00:57:51.519Z,5.62
2017-11-21T00:58:32.093Z,5.72
2017-11-21T00:59:12.650Z,5.68
2017-11-21T00:59:53.204Z,5.64
2017-11-21T01:00:33.795Z,5.59
2017-11-21T01:01:14.386Z,5.71
2017-11-21T01:01:54.915Z,5.66
2017-11-21T01:02:35.488Z,5.62
2017-11-21T01:03:16.063Z,5.62
2017-11-21T01:03:56.639Z,5.68
2017-11-21T01:04:37.204Z,5.65
2017-11-21T01:05:17.765Z,5.56
2017-11-21T01:05:58.349Z,5.62
2017-11-21T01:06:38.932Z,5.66
2017-11-21T01:07:19.492Z,5.64
2017-11-21T01:08:00.075Z,5.65
2017-11-21T01:08:40.650Z,5.51
2017-11-21T01:09:21.207Z,5.51
2017-11-21T01:10:01.829Z,5.51
2017-11-21T01:10:42.409Z,5.62
2017-11-21T01:11:22.989Z,5.62
2017-11-21T01:12:03.579Z,5.64
2017-11-21T01:12:44.155Z,5.64
2017-11-21T01:13:24.729Z,5.62
2017-11-21T01:14:05.280Z,5.48
2017-11-21T01:14:45.844Z,5.5
2017-11-21T01:15:26.422Z,5.48
2017-11-21T01:16:07.031Z,5.53
2017-11-21T01:16:47.576Z,5.56
2017-11-21T01:17:28.145Z,5.53
2017-11-21T01:18:08.722Z,5.54
2017-11-21T01:18:49.297Z,5.54
2017-11-21T01:19:29.893Z,5.56
2017-11-21T01:20:10.453Z,5.53
2017-11-21T01:20:51.030Z,5.57
2017-11-21T01:21:31.593Z,5.53
2017-11-21T01:22:12.167Z,5.53
2017-11-21T01:22:52.739Z,5.53
2017-11-21T01:23:33.308Z,5.46
2017-11-21T01:24:13.861Z,5.54
2017-11-21T01:24:54.409Z,5.46
2017-11-21T01:25:35.007Z,5.43
2017-11-21T01:26:15.599Z,5.39
2017-11-21T01:26:56.157Z,5.46
2017-11-21T01:27:36.719Z,5.43
2017-11-21T01:28:17.276Z,5.41
2017-11-21T01:28:57.828Z,5.43
2017-11-21T01:29:38.382Z,5.39
2017-11-21T01:30:18.966Z,5.48
2017-11-21T01:30:59.529Z,5.44
2017-11-21T01:31:40.102Z,5.54
2017-11-21T01:32:20.663Z,5.39
2017-11-21T01:33:01.244Z,5.41
2017-11-21T01:33:41.816Z,5.48
2017-11-21T01:34:22.386Z,5.35
2017-11-21T01:35:02.950Z,5.36
2017-11-21T01:35:43.525Z,5.41
2017-11-21T01:36:24.101Z,5.41
2017-11-21T01:37:04.651Z,5.39
2017-11-21T01:37:45.223Z,5.44
2017-11-21T01:38:25.800Z,5.39
2017-11-21T01:39:06.377Z,5.41
2017-11-21T01:39:46.951Z,5.43
2017-11-21T01:40:30.383Z,5.48
2017-11-21T01:41:10.947Z,5.46
2017-11-21T01:41:51.532Z,5.41
2017-11-21T01:42:32.091Z,5.47
2017-11-21T01:43:12.679Z,5.41
2017-11-21T01:43:53.265Z,5.38
2017-11-21T01:44:33.818Z,5.44
2017-11-21T01:45:14.386Z,5.47
2017-11-21T01:45:54.974Z,5.43
2017-11-21T01:46:35.548Z,5.46
2017-11-21T01:47:16.124Z,5.48
2017-11-21T01:47:56.706Z,5.39
2017-11-21T01:48:37.288Z,5.38
2017-11-21T01:49:17.847Z,5.39
2017-11-21T01:49:58.432Z,5.41
2017-11-21T01:50:39.014Z,5.39
2017-11-21T01:51:19.587Z,5.44
2017-11-21T01:52:00.144Z,5.44
2017-11-21T01:52:40.723Z,5.47
2017-11-21T01:53:21.280Z,5.56
2017-11-21T01:54:01.870Z,5.53
2017-11-21T01:54:42.451Z,5.53
2017-11-21T01:55:23.043Z,5.56
2017-11-21T01:56:03.621Z,5.54
2017-11-21T01:56:44.199Z,5.54
2017-11-21T01:57:24.781Z,5.51
2017-11-21T01:58:05.372Z,5.56
2017-11-21T01:58:45.964Z,5.54
2017-11-21T01:59:26.538Z,5.56
2017-11-21T02:00:07.117Z,5.56
2017-11-21T02:00:47.689Z,5.59
2017-11-21T02:01:28.247Z,5.54
2017-11-21T02:02:08.810Z,5.54
2017-11-21T02:02:49.388Z,5.51
2017-11-21T02:03:29.950Z,5.54
2017-11-21T02:04:10.528Z,5.48
2017-11-21T02:04:51.120Z,5.47
2017-11-21T02:05:31.684Z,5.44
2017-11-21T02:06:12.254Z,5.46
2017-11-21T02:06:52.826Z,5.5
2017-11-21T02:07:33.385Z,5.53
2017-11-21T02:08:13.958Z,5.57
2017-11-21T02:08:54.520Z,5.53
2017-11-21T02:09:35.116Z,5.57
2017-11-21T02:10:15.695Z,5.54
2017-11-21T02:10:56.276Z,5.47
2017-11-21T02:11:36.841Z,5.51
2017-11-21T02:12:17.408Z,5.54
2017-11-21T02:12:58.003Z,5.51
2017-11-21T02:13:38.592Z,5.48
2017-11-21T02:14:19.163Z,5.51
2017-11-21T02:14:59.701Z,5.57
2017-11-21T02:15:40.285Z,5.53
2017-11-21T02:16:20.869Z,5.53
2017-11-21T02:17:01.441Z,5.54
2017-11-21T02:17:42.024Z,5.48
2017-11-21T02:18:22.581Z,5.47
2017-11-21T02:19:03.409Z,5.44
2017-11-21T02:19:43.969Z,5.47
2017-11-21T02:20:24.537Z,5.39
2017-11-21T02:21:05.100Z,5.38
2017-11-21T02:21:45.690Z,5.39
2017-11-21T02:22:26.253Z,5.38
2017-11-21T02:23:06.814Z,5.36
2017-11-21T02:23:47.415Z,5.36
2017-11-21T02:24:27.995Z,5.43
2017-11-21T02:25:08.571Z,5.39
2017-11-21T02:25:49.134Z,5.51
2017-11-21T02:26:29.709Z,5.41
2017-11-21T02:27:10.280Z,5.39
2017-11-21T02:27:50.850Z,5.33
2017-11-21T02:28:31.421Z,5.36
2017-11-21T02:29:11.997Z,5.35
2017-11-21T02:29:52.596Z,5.3
2017-11-21T02:30:33.159Z,5.41
2017-11-21T02:31:13.745Z,5.35
2017-11-21T02:31:54.301Z,5.33
2017-11-21T02:32:34.871Z,5.36
2017-11-21T02:33:15.465Z,5.38
2017-11-21T02:33:56.029Z,5.43
2017-11-21T02:34:36.622Z,5.41
2017-11-21T02:35:17.188Z,5.48
2017-11-21T02:35:57.757Z,5.44
2017-11-21T02:36:38.323Z,5.41
2017-11-21T02:37:18.914Z,5.44
2017-11-21T02:37:59.491Z,5.46
2017-11-21T02:38:40.059Z,5.48
2017-11-21T02:39:20.636Z,5.48
2017-11-21T02:40:01.194Z,5.39
2017-11-21T02:40:41.769Z,5.44
2017-11-21T02:41:22.334Z,5.36
2017-11-21T02:42:02.900Z,5.41
2017-11-21T02:42:43.487Z,5.44
2017-11-21T02:43:24.044Z,5.46
2017-11-21T02:44:04.623Z,5.47
2017-11-21T02:44:45.196Z,5.39
2017-11-21T02:45:25.743Z,5.41
2017-11-21T02:46:06.302Z,5.43
2017-11-21T02:46:46.884Z,5.43
2017-11-21T02:47:27.426Z,5.43
2017-11-21T02:48:07.987Z,5.44
2017-11-21T02:48:48.558Z,5.39
2017-11-21T02:49:29.142Z,5.43
2017-11-21T02:50:09.697Z,5.39
2017-11-21T02:50:50.252Z,5.41
2017-11-21T02:51:30.825Z,5.48
2017-11-21T02:52:11.409Z,5.44
2017-11-21T02:52:51.967Z,5.53
2017-11-21T02:53:32.542Z,5.47
2017-11-21T02:54:13.118Z,5.48
2017-11-21T02:54:53.685Z,5.51
2017-11-21T02:55:34.256Z,5.51
2017-11-21T02:56:14.824Z,5.56
2017-11-21T02:56:55.419Z,5.54
2017-11-21T02:57:36.033Z,5.46
2017-11-21T02:58:16.592Z,5.44
2017-11-21T02:58:57.165Z,5.46
2017-11-21T02:59:37.745Z,5.44
2017-11-21T03:00:18.303Z,5.44
2017-11-21T03:00:58.872Z,5.44
2017-11-21T03:01:39.437Z,5.44
2017-11-21T03:02:20.015Z,5.38
2017-11-21T03:03:00.590Z,5.43
2017-11-21T03:03:41.170Z,5.44
2017-11-21T03:04:21.747Z,5.43
2017-11-21T03:05:02.338Z,5.44
2017-11-21T03:05:42.939Z,5.39
2017-11-21T03:06:23.507Z,5.38
2017-11-21T03:07:04.076Z,5.43
2017-11-21T03:07:44.646Z,5.43
2017-11-21T03:08:25.219Z,5.38
2017-11-21T03:09:05.802Z,5.44
2017-11-21T03:09:46.369Z,5.39
2017-11-21T03:10:26.938Z,5.43
2017-11-21T03:11:07.541Z,5.46
2017-11-21T03:11:48.100Z,5.44
2017-11-21T03:12:28.668Z,5.46
2017-11-21T03:13:09.271Z,5.48
2017-11-21T03:13:49.827Z,5.51
2017-11-21T03:14:30.382Z,5.54
2017-11-21T03:15:10.965Z,5.54
2017-11-21T03:15:51.511Z,5.54
2017-11-21T03:16:32.094Z,5.53
2017-11-21T03:17:12.682Z,5.54
2017-11-21T03:17:53.259Z,5.54
2017-11-21T03:18:33.851Z,5.54
2017-11-21T03:19:14.428Z,5.59
2017-11-21T03:19:54.995Z,5.53
2017-11-21T03:20:35.565Z,5.51
2017-11-21T03:21:16.131Z,5.53
2017-11-21T03:21:56.730Z,5.46
2017-11-21T03:22:37.305Z,5.48
2017-11-21T03:23:17.868Z,5.48
2017-11-21T03:23:58.438Z,5.47
2017-11-21T03:24:39.010Z,5.53
2017-11-21T03:25:19.572Z,5.51
2017-11-21T03:26:00.159Z,5.5
2017-11-21T03:26:40.744Z,5.53
2017-11-21T03:27:21.325Z,5.48
2017-11-21T03:28:01.886Z,5.53
2017-11-21T03:28:42.460Z,5.48
2017-11-21T03:29:23.025Z,5.56
2017-11-21T03:30:03.605Z,5.5
2017-11-21T03:30:44.199Z,5.53
2017-11-21T03:31:24.751Z,5.54
2017-11-21T03:32:05.304Z,5.46
2017-11-21T03:32:45.895Z,5.41
2017-11-21T03:33:26.468Z,5.41
2017-11-21T03:34:07.034Z,5.39
2017-11-21T03:34:47.591Z,5.47
2017-11-21T03:35:28.165Z,5.47
2017-11-21T03:36:08.736Z,5.38
2017-11-21T03:36:49.306Z,5.43
2017-11-21T03:37:29.907Z,5.38
2017-11-21T03:38:10.481Z,5.35
2017-11-21T03:38:51.079Z,5.36
2017-11-21T03:39:31.646Z,5.41
2017-11-21T03:40:12.270Z,5.41
2017-11-21T03:40:52.832Z,5.36
2017-11-21T03:41:33.398Z,5.36
2017-11-21T03:42:13.983Z,5.29
2017-11-21T03:42:54.543Z,5.36
2017-11-21T03:43:35.118Z,5.39
2017-11-21T03:44:15.693Z,5.36
2017-11-21T03:44:56.253Z,5.46
2017-11-21T03:45:36.823Z,5.5
2017-11-21T03:46:17.390Z,5.36
2017-11-21T03:46:57.966Z,5.41
2017-11-21T03:47:38.573Z,5.46
2017-11-21T03:48:19.133Z,5.38
2017-11-21T03:48:59.706Z,5.48
2017-11-21T03:49:40.273Z,5.39
2017-11-21T03:50:20.845Z,5.36
2017-11-21T03:51:01.437Z,5.41
2017-11-21T03:51:42.008Z,5.47
2017-11-21T03:52:22.562Z,5.47
2017-11-21T03:53:03.126Z,5.35
2017-11-21T03:53:43.697Z,5.46
2017-11-21T03:54:24.270Z,5.43
2017-11-21T03:55:04.849Z,5.43
2017-11-21T03:55:45.402Z,5.43
2017-11-21T03:56:25.977Z,5.44
2017-11-21T03:57:06.554Z,5.36
2017-11-21T03:57:47.139Z,5.36
2017-11-21T03:58:27.714Z,5.38
2017-11-21T03:59:08.291Z,5.39
2017-11-21T03:59:48.873Z,5.46
2017-11-21T04:00:29.443Z,5.33
2017-11-21T04:01:10.016Z,5.33
2017-11-21T04:01:50.577Z,5.39
2017-11-21T04:02:31.168Z,5.39
2017-11-21T04:03:11.744Z,5.33
2017-11-21T04:03:52.386Z,5.35
2017-11-21T04:04:32.952Z,5.36
2017-11-21T04:05:13.531Z,5.39
2017-11-21T04:05:54.080Z,5.36
2017-11-21T04:06:34.641Z,5.36
2017-11-21T04:07:15.203Z,5.43
2017-11-21T04:07:55.778Z,5.36
2017-11-21T04:08:36.336Z,5.41
2017-11-21T04:09:16.938Z,5.48
2017-11-21T04:09:57.529Z,5.41
2017-11-21T04:10:38.120Z,5.38
2017-11-21T04:11:18.678Z,5.41
2017-11-21T04:11:59.244Z,5.38
2017-11-21T04:12:39.802Z,5.47
2017-11-21T04:13:20.360Z,5.44
2017-11-21T04:14:00.909Z,5.44
2017-11-21T04:14:41.474Z,5.51
2017-11-21T04:15:22.025Z,5.44
2017-11-21T04:16:02.642Z,5.53
2017-11-21T04:16:43.217Z,5.51
2017-11-21T04:17:23.848Z,5.51
2017-11-21T04:18:04.426Z,5.53
2017-11-21T04:18:44.995Z,5.54
2017-11-21T04:19:25.560Z,5.56
2017-11-21T04:20:06.134Z,5.51
2017-11-21T04:20:46.690Z,5.53
2017-11-21T04:21:27.268Z,5.53
2017-11-21T04:22:07.841Z,5.39
2017-11-21T04:22:48.433Z,5.46
2017-11-21T04:23:29.007Z,5.51
2017-11-21T04:24:09.578Z,5.47
2017-11-21T04:24:50.142Z,5.46
2017-11-21T04:25:30.726Z,5.53
2017-11-21T04:26:11.325Z,5.53
2017-11-21T04:26:51.912Z,5.48
2017-11-21T04:27:32.473Z,5.47
2017-11-21T04:28:13.025Z,5.54
2017-11-21T04:28:53.585Z,5.5
2017-11-21T04:29:34.142Z,5.54
2017-11-21T04:30:14.713Z,5.53
2017-11-21T04:30:55.270Z,5.51
2017-11-21T04:31:35.837Z,5.47
2017-11-21T04:32:16.409Z,5.54
2017-11-21T04:32:56.965Z,5.51
2017-11-21T04:33:37.527Z,5.53
2017-11-21T04:34:18.128Z,5.54
2017-11-21T04:34:58.713Z,5.56
2017-11-21T04:35:39.276Z,5.53
2017-11-21T04:36:19.859Z,5.53
2017-11-21T04:37:00.426Z,5.51
2017-11-21T04:37:40.985Z,5.51
2017-11-21T04:38:21.545Z,5.57
2017-11-21T04:39:02.114Z,5.54
2017-11-21T04:39:42.698Z,5.51
2017-11-21T04:40:23.254Z,5.53
2017-11-21T04:41:03.817Z,5.48
2017-11-21T04:41:44.386Z,5.53
2017-11-21T04:42:24.961Z,5.51
2017-11-21T04:43:05.542Z,5.47
2017-11-21T04:43:46.101Z,5.53
2017-11-21T04:44:26.665Z,5.5
2017-11-21T04:45:07.219Z,5.64
2017-11-21T04:45:47.789Z,5.56
2017-11-21T04:46:28.351Z,5.66
2017-11-21T04:47:08.930Z,5.56
2017-11-21T04:47:49.497Z,5.65
2017-11-21T04:48:30.077Z,5.62
2017-11-21T04:49:10.645Z,5.53
2017-11-21T04:49:51.239Z,5.66
2017-11-21T04:50:31.805Z,5.57
2017-11-21T04:51:12.426Z,5.66
2017-11-21T04:51:52.988Z,5.64
2017-11-21T04:52:33.563Z,5.66
2017-11-21T04:53:14.149Z,5.65
2017-11-21T04:53:54.699Z,5.64
2017-11-21T04:54:35.253Z,5.61
2017-11-21T04:55:15.844Z,5.61
2017-11-21T04:55:56.426Z,5.51
2017-11-21T04:56:36.999Z,5.61
2017-11-21T04:57:17.576Z,5.56
2017-11-21T04:57:58.140Z,5.47
2017-11-21T04:58:38.733Z,5.5
2017-11-21T04:59:19.315Z,5.5
2017-11-21T04:59:59.895Z,5.64
2017-11-21T05:00:40.466Z,5.66
2017-11-21T05:01:21.022Z,5.65
2017-11-21T05:02:01.609Z,5.65
2017-11-21T05:02:42.176Z,5.62
2017-11-21T05:03:22.760Z,5.66
2017-11-21T05:04:03.314Z,5.62
2017-11-21T05:04:43.889Z,5.51
2017-11-21T05:05:24.445Z,5.59
2017-11-21T05:06:05.014Z,5.66
2017-11-21T05:06:45.601Z,5.64
2017-11-21T05:07:26.174Z,5.65
2017-11-21T05:08:06.740Z,5.61
2017-11-21T05:08:47.326Z,5.62
2017-11-21T05:09:27.927Z,5.59
2017-11-21T05:10:08.513Z,5.62
2017-11-21T05:10:49.061Z,5.62
2017-11-21T05:11:29.623Z,5.66
2017-11-21T05:12:10.209Z,5.65
2017-11-21T05:12:50.787Z,5.66
2017-11-21T05:13:31.365Z,5.62
2017-11-21T05:14:11.924Z,5.65
2017-11-21T05:14:52.513Z,5.66
2017-11-21T05:15:33.086Z,5.64
2017-11-21T05:16:13.639Z,5.64
2017-11-21T05:16:54.189Z,5.65
2017-11-21T05:17:34.769Z,5.65
2017-11-21T05:18:15.309Z,5.56
2017-11-21T05:18:55.882Z,5.51
2017-11-21T05:19:36.448Z,5.53
2017-11-21T05:20:17.047Z,5.53
2017-11-21T05:20:57.608Z,5.57
2017-11-21T05:21:38.170Z,5.5
2017-11-21T05:22:18.744Z,5.47
2017-11-21T05:22:59.309Z,5.53
2017-11-21T05:23:39.889Z,5.53
2017-11-21T05:24:20.447Z,5.48
2017-11-21T05:25:01.008Z,5.53
2017-11-21T05:25:41.565Z,5.5
2017-11-21T05:26:22.143Z,5.53
2017-11-21T05:27:02.725Z,5.5
2017-11-21T05:27:43.285Z,5.64
2017-11-21T05:28:23.862Z,5.54
2017-11-21T05:29:04.453Z,5.51
2017-11-21T05:29:45.033Z,5.5
2017-11-21T05:30:25.620Z,5.48
2017-11-21T05:31:06.197Z,5.5
2017-11-21T05:31:46.779Z,5.48
2017-11-21T05:32:27.340Z,5.51
2017-11-21T05:33:07.921Z,5.57
2017-11-21T05:33:48.485Z,5.53
2017-11-21T05:34:29.053Z,5.53
2017-11-21T05:35:09.692Z,5.47
2017-11-21T05:35:50.247Z,5.59
2017-11-21T05:36:30.815Z,5.5
2017-11-21T05:37:11.456Z,5.56
2017-11-21T05:37:52.019Z,5.53
2017-11-21T05:38:32.573Z,5.57
2017-11-21T05:39:13.130Z,5.46
2017-11-21T05:39:53.710Z,5.5
2017-11-21T05:40:34.290Z,5.56
2017-11-21T05:41:14.862Z,5.62
2017-11-21T05:41:55.422Z,5.57
2017-11-21T05:42:35.987Z,5.59
2017-11-21T05:43:16.566Z,5.47
2017-11-21T05:43:57.183Z,5.64
2017-11-21T05:44:37.758Z,5.61
2017-11-21T05:45:18.425Z,5.68
2017-11-21T05:45:58.978Z,5.66
2017-11-21T05:46:39.789Z,5.62
2017-11-21T05:47:20.491Z,5.65
2017-11-21T05:48:01.055Z,5.62
2017-11-21T05:48:41.658Z,5.54
2017-11-21T05:49:22.238Z,5.54
2017-11-21T05:50:05.979Z,5.53
2017-11-21T05:50:46.533Z,5.46
2017-11-21T05:51:27.113Z,5.41
2017-11-21T05:52:07.677Z,5.39
2017-11-21T05:52:48.243Z,5.38
2017-11-21T05:53:28.813Z,5.38
2017-11-21T05:54:09.409Z,5.36
2017-11-21T05:54:50.059Z,5.59
2017-11-21T05:55:30.636Z,5.43
2017-11-21T05:56:11.271Z,5.46
2017-11-21T05:57:34.454Z,5.48
2017-11-21T05:58:14.997Z,5.47
2017-11-21T05:58:55.677Z,5.36
2017-11-21T05:59:36.286Z,5.43
2017-11-21T06:00:16.961Z,5.39
2017-11-21T06:00:57.566Z,5.29
2017-11-21T06:01:38.131Z,5.35
2017-11-21T06:02:18.716Z,5.33
2017-11-21T06:02:59.317Z,5.33
2017-11-21T06:03:39.935Z,5.33
2017-11-21T06:04:20.512Z,5.35
2017-11-21T06:05:01.161Z,5.25
2017-11-21T06:05:41.805Z,5.29
2017-11-21T06:06:22.378Z,5.29
2017-11-21T06:07:02.971Z,5.3
2017-11-21T06:07:43.585Z,5.3
2017-11-21T06:08:24.321Z,5.29
2017-11-21T06:09:05.244Z,5.32
2017-11-21T06:09:45.807Z,5.35
2017-11-21T06:10:26.424Z,5.32
2017-11-21T06:11:07.002Z,5.35
2017-11-21T06:11:47.641Z,5.36
2017-11-21T06:12:28.256Z,5.32
2017-11-21T06:13:08.810Z,5.38
2017-11-21T06:13:49.411Z,5.33
2017-11-21T06:14:30.061Z,5.38
2017-11-21T06:15:10.640Z,5.35
2017-11-21T06:15:51.217Z,5.41
2017-11-21T06:16:31.778Z,5.38
2017-11-21T06:17:12.344Z,5.41
2017-11-21T06:17:53.095Z,5.38
2017-11-21T06:18:33.663Z,5.36
2017-11-21T06:19:14.424Z,5.38
2017-11-21T06:19:54.992Z,5.35
2017-11-21T06:20:35.817Z,5.36
2017-11-21T06:21:17.386Z,5.33
2017-11-21T06:21:58.009Z,5.43
2017-11-21T06:22:38.770Z,5.35
2017-11-21T06:23:19.740Z,5.3
2017-11-21T06:24:00.707Z,5.33
2017-11-21T06:24:41.510Z,5.29
2017-11-21T06:25:22.249Z,5.33
2017-11-21T06:26:02.843Z,5.32
2017-11-21T06:26:43.468Z,5.29
2017-11-21T06:27:24.054Z,5.32
2017-11-21T06:28:04.611Z,5.33
2017-11-21T06:28:45.266Z,5.35
2017-11-21T06:29:25.836Z,5.3
2017-11-21T06:30:06.419Z,5.32
2017-11-21T06:30:47.025Z,5.35
2017-11-21T06:31:27.620Z,5.36
2017-11-21T06:32:08.207Z,5.36
2017-11-21T06:32:48.952Z,5.35
2017-11-21T06:34:42.587Z,5.38
2017-11-21T06:35:23.137Z,5.35
2017-11-21T06:36:03.843Z,5.32
2017-11-21T06:36:44.407Z,5.33
2017-11-21T06:37:25.550Z,5.39
2017-11-21T06:38:06.478Z,5.46
2017-11-21T06:38:47.376Z,5.46
2017-11-21T06:39:27.963Z,5.47
2017-11-21T06:40:08.503Z,5.38
2017-11-21T06:40:49.073Z,5.47
2017-11-21T06:41:29.682Z,5.38
2017-11-21T06:42:10.518Z,5.36
2017-11-21T06:42:51.095Z,5.5
2017-11-21T06:43:31.819Z,5.53
2017-11-21T06:44:12.423Z,5.39
2017-11-21T06:44:53.018Z,5.32
2017-11-21T06:45:33.633Z,5.35
2017-11-21T06:46:14.215Z,5.3
2017-11-21T06:46:54.834Z,5.39
2017-11-21T06:47:35.442Z,5.44
2017-11-21T06:48:16.003Z,5.38
2017-11-21T06:48:56.585Z,5.39
2017-11-21T06:49:37.149Z,5.41
2017-11-21T06:50:17.931Z,5.44
2017-11-21T06:50:58.512Z,5.46
2017-11-21T06:51:39.192Z,5.47
2017-11-21T06:52:19.734Z,5.39
2017-11-21T06:53:00.332Z,5.38
2017-11-21T06:53:41.059Z,5.5
2017-11-21T06:54:21.663Z,5.43
2017-11-21T06:55:02.267Z,5.39
2017-11-21T06:55:42.876Z,5.38
2017-11-21T06:56:23.451Z,5.53
2017-11-21T06:57:04.007Z,5.47
2017-11-21T06:57:44.557Z,5.53
2017-11-21T06:58:25.118Z,5.57
2017-11-21T06:59:05.713Z,5.5
2017-11-21T06:59:46.265Z,5.51
2017-11-21T07:00:26.841Z,5.51
2017-11-21T07:01:07.419Z,5.48
2017-11-21T07:01:48.035Z,5.5
2017-11-21T07:02:28.588Z,5.51
2017-11-21T07:03:09.150Z,5.59
2017-11-21T07:03:49.721Z,5.5
2017-11-21T07:04:30.281Z,5.59
2017-11-21T07:05:10.861Z,5.66
2017-11-21T07:05:51.417Z,5.57
2017-11-21T07:06:32.016Z,5.48
2017-11-21T07:07:12.591Z,5.62
2017-11-21T07:07:53.161Z,5.62
2017-11-21T07:08:33.757Z,5.61
2017-11-21T07:09:14.328Z,5.62
2017-11-21T07:09:54.898Z,5.59
2017-11-21T07:10:35.444Z,5.64
2017-11-21T07:11:16.020Z,5.65
2017-11-21T07:11:56.584Z,5.66
2017-11-21T07:12:37.163Z,5.68
2017-11-21T07:13:17.752Z,5.47
2017-11-21T07:13:58.353Z,5.62
2017-11-21T07:14:38.925Z,5.65
2017-11-21T07:15:19.491Z,5.59
2017-11-21T07:16:00.037Z,5.61
2017-11-21T07:16:40.615Z,5.64
2017-11-21T07:17:21.225Z,5.57
2017-11-21T07:18:01.795Z,5.62
2017-11-21T07:18:42.368Z,5.64
2017-11-21T07:19:22.952Z,5.64
2017-11-21T07:20:03.526Z,5.69
2017-11-21T07:20:44.089Z,5.69
2017-11-21T07:21:24.659Z,5.57
2017-11-21T07:22:05.235Z,5.65
2017-11-21T07:22:45.803Z,5.61
2017-11-21T07:23:26.367Z,5.62
2017-11-21T07:24:06.953Z,5.65
2017-11-21T07:24:47.513Z,5.64
2017-11-21T07:25:28.092Z,5.65
2017-11-21T07:26:08.667Z,5.64
2017-11-21T07:26:49.231Z,5.65
2017-11-21T07:27:29.800Z,5.59
2017-11-21T07:28:10.354Z,5.64
2017-11-21T07:28:50.920Z,5.56
2017-11-21T07:29:31.488Z,5.71
2017-11-21T07:30:12.045Z,5.72
2017-11-21T07:30:52.619Z,5.62
2017-11-21T07:31:33.360Z,5.68
2017-11-21T07:32:14.021Z,5.66
2017-11-21T07:32:54.581Z,5.79
2017-11-21T07:33:35.180Z,5.71
2017-11-21T07:34:15.728Z,5.8
2017-11-21T07:34:56.272Z,5.72
2017-11-21T07:35:36.840Z,5.86
2017-11-21T07:36:17.417Z,5.79
2017-11-21T07:36:57.990Z,5.73
2017-11-21T07:37:38.550Z,5.8
2017-11-21T07:38:19.118Z,5.84
2017-11-21T07:38:59.676Z,5.8
2017-11-21T07:39:40.221Z,5.86
2017-11-21T07:40:20.772Z,5.75
2017-11-21T07:41:01.320Z,5.76
2017-11-21T07:41:41.875Z,5.72
2017-11-21T07:42:22.421Z,5.82
2017-11-21T07:43:02.984Z,5.8
2017-11-21T07:43:43.547Z,5.89
2017-11-21T07:44:24.116Z,5.73
2017-11-21T07:45:04.690Z,5.83
2017-11-21T07:45:45.258Z,5.83
2017-11-21T07:46:25.842Z,5.84
2017-11-21T07:47:06.399Z,5.82
2017-11-21T07:47:47.013Z,5.76
2017-11-21T07:48:27.610Z,5.86
2017-11-21T07:49:08.162Z,5.75
2017-11-21T07:49:48.724Z,5.84
2017-11-21T07:50:29.277Z,5.73
2017-11-21T07:51:09.840Z,5.76
2017-11-21T07:51:50.413Z,5.86
2017-11-21T07:52:30.974Z,5.76
2017-11-21T07:53:11.550Z,5.76
2017-11-21T07:53:52.103Z,5.8
2017-11-21T07:54:32.659Z,5.76
2017-11-21T07:55:13.235Z,5.79
2017-11-21T07:55:53.802Z,5.72
2017-11-21T07:56:34.364Z,5.79
2017-11-21T07:57:14.941Z,5.82
2017-11-21T07:57:55.483Z,5.76
2017-11-21T07:58:36.054Z,5.79
2017-11-21T07:59:16.610Z,5.8
2017-11-21T07:59:57.176Z,5.76
2017-11-21T08:00:37.865Z,5.76
2017-11-21T08:01:18.430Z,5.91
2017-11-21T08:01:58.999Z,5.84
2017-11-21T08:02:39.568Z,5.9
2017-11-21T08:03:20.133Z,5.84
2017-11-21T08:04:00.710Z,5.86
2017-11-21T08:04:41.288Z,5.8
2017-11-21T08:05:21.839Z,5.84
2017-11-21T08:06:02.451Z,5.86
2017-11-21T08:06:43.028Z,5.83
2017-11-21T08:07:23.625Z,5.76
2017-11-21T08:08:04.200Z,5.87
2017-11-21T08:08:44.769Z,5.86
2017-11-21T08:09:25.345Z,5.83
2017-11-21T08:10:05.941Z,5.84
2017-11-21T08:10:46.522Z,5.94
2017-11-21T08:11:27.073Z,5.94
2017-11-21T08:12:07.679Z,5.91
2017-11-21T08:12:48.251Z,5.94
2017-11-21T08:13:28.811Z,5.97
2017-11-21T08:14:09.370Z,5.94
2017-11-21T08:14:49.929Z,5.93
2017-11-21T08:15:30.494Z,5.98
2017-11-21T08:16:11.059Z,5.9
2017-11-21T08:16:51.631Z,5.93
2017-11-21T08:17:32.184Z,5.94
2017-11-21T08:18:12.769Z,5.99
2017-11-21T08:18:53.326Z,6.01
2017-11-21T08:19:33.918Z,5.99
2017-11-21T08:20:14.467Z,5.98
2017-11-21T08:20:55.023Z,5.99
2017-11-21T08:21:35.579Z,6.04
2017-11-21T08:22:16.143Z,5.97
2017-11-21T08:22:56.705Z,6.02
2017-11-21T08:23:37.262Z,5.9
2017-11-21T08:24:17.819Z,5.93
2017-11-21T08:24:58.380Z,6.02
2017-11-21T08:25:38.930Z,5.99
2017-11-21T08:26:19.493Z,5.97
2017-11-21T08:27:00.051Z,5.98
2017-11-21T08:27:40.606Z,5.99
2017-11-21T08:28:21.222Z,5.99
2017-11-21T08:29:01.773Z,5.98
2017-11-21T08:29:42.348Z,5.99
2017-11-21T08:30:22.936Z,5.97
2017-11-21T08:31:03.503Z,6.02
2017-11-21T08:31:44.065Z,6.01
2017-11-21T08:32:24.627Z,5.99
2017-11-21T08:33:05.227Z,5.94
2017-11-21T08:33:45.828Z,5.98
2017-11-21T08:34:26.396Z,5.94
2017-11-21T08:35:06.977Z,5.97
2017-11-21T08:35:47.573Z,5.94
2017-11-21T08:36:28.134Z,5.9
2017-11-21T08:37:08.715Z,5.93
2017-11-21T08:37:49.280Z,5.8
2017-11-21T08:38:29.886Z,5.82
2017-11-21T08:39:10.507Z,5.9
2017-11-21T08:39:51.067Z,5.91
2017-11-21T08:40:31.647Z,5.79
2017-11-21T08:41:12.214Z,5.89
2017-11-21T08:41:52.774Z,5.87
2017-11-21T08:42:33.355Z,5.87
2017-11-21T08:43:14.252Z,5.87
2017-11-21T08:43:54.804Z,5.83
2017-11-21T08:44:35.383Z,5.91
2017-11-21T08:45:15.936Z,5.98
2017-11-21T08:45:56.509Z,5.97
2017-11-21T08:46:37.082Z,5.91
2017-11-21T08:47:17.641Z,5.97
2017-11-21T08:47:58.254Z,5.91
2017-11-21T08:48:38.897Z,5.91
2017-11-21T08:49:19.549Z,5.99
2017-11-21T08:50:00.152Z,5.9
2017-11-21T08:50:40.745Z,5.97
2017-11-21T08:51:21.358Z,5.9
2017-11-21T08:52:01.932Z,5.97
2017-11-21T08:52:42.563Z,5.98
2017-11-21T08:53:23.169Z,5.98
2017-11-21T08:54:03.742Z,5.94
2017-11-21T08:54:44.325Z,5.97
2017-11-21T08:55:25.100Z,5.99
2017-11-21T08:56:05.692Z,6.04
2017-11-21T08:56:46.296Z,5.99
2017-11-21T08:57:26.918Z,6.07
2017-11-21T08:58:07.517Z,6.05
2017-11-21T08:58:48.088Z,6.04
2017-11-21T08:59:28.644Z,5.98
2017-11-21T09:00:09.235Z,6.04
2017-11-21T09:00:49.818Z,6.08
2017-11-21T09:01:30.422Z,5.91
2017-11-21T09:02:10.996Z,6.05
2017-11-21T09:02:51.558Z,6.02
2017-11-21T09:03:32.120Z,5.94